createdAt,value
2023-04-30T00:02:06.147Z,9.18
2023-04-30T00:04:34.215Z,8.50
2023-04-30T00:07:02.256Z,8.45
2023-04-30T00:09:31.694Z,8.50
2023-04-30T00:11:59.728Z,8.95
2023-04-30T00:14:27.795Z,9.50
2023-04-30T00:16:55.979Z,9.60
2023-04-30T00:19:24.204Z,10.70
2023-04-30T00:21:52.264Z,9.65
2023-04-30T00:24:20.601Z,10.77
2023-04-30T00:26:50.003Z,9.38
2023-04-30T00:29:18.052Z,9.43
2023-04-30T00:31:46.171Z,9.70
2023-04-30T00:34:14.253Z,9.77
2023-04-30T00:36:42.283Z,9.60
2023-04-30T00:39:10.767Z,9.60
2023-04-30T00:41:39.630Z,10.13
2023-04-30T00:44:09.030Z,10.10
2023-04-30T00:46:37.043Z,10.35
2023-04-30T00:49:05.815Z,10.80
2023-04-30T00:51:34.470Z,10.65
2023-04-30T00:54:03.624Z,10.45
2023-04-30T00:56:32.841Z,10.57
2023-04-30T00:59:01.314Z,11.10
2023-04-30T01:01:31.727Z,9.68
2023-04-30T01:04:01.047Z,9.63
2023-04-30T01:06:29.657Z,9.27
2023-04-30T01:08:58.471Z,9.40
2023-04-30T01:11:33.517Z,10.63
2023-04-30T01:14:11.640Z,10.23
2023-04-30T01:16:49.356Z,10.55
2023-04-30T01:19:35.187Z,10.52
2023-04-30T01:22:05.779Z,10.50
2023-04-30T01:24:55.337Z,10.25
2023-04-30T01:27:38.758Z,10.93
2023-04-30T01:30:10.125Z,10.18
2023-04-30T01:32:38.198Z,10.48
2023-04-30T01:35:06.774Z,10.68
2023-04-30T01:37:42.615Z,10.35
2023-04-30T01:40:24.972Z,9.82
2023-04-30T01:43:02.970Z,9.23
2023-04-30T01:45:49.526Z,10.80
2023-04-30T01:48:27.283Z,10.32
2023-04-30T01:51:05.603Z,10.50
2023-04-30T01:53:42.057Z,10.15
2023-04-30T01:56:16.131Z,10.73
2023-04-30T01:58:44.551Z,11.23
2023-04-30T02:01:29.998Z,11.02
2023-04-30T02:03:58.179Z,11.75
2023-04-30T02:06:28.720Z,11.77
2023-04-30T02:09:03.256Z,11.45
2023-04-30T02:11:31.635Z,12.07
2023-04-30T02:13:59.672Z,11.88
2023-04-30T02:16:29.133Z,12.63
2023-04-30T02:18:57.242Z,11.77
2023-04-30T02:21:25.647Z,12.45
2023-04-30T02:23:53.743Z,13.10
2023-04-30T02:26:22.239Z,11.82
2023-04-30T02:28:50.345Z,12.02
2023-04-30T02:31:18.401Z,12.15
2023-04-30T02:33:47.821Z,12.52
2023-04-30T02:36:15.838Z,13.25
2023-04-30T02:38:43.873Z,12.73
2023-04-30T02:41:11.917Z,12.25
2023-04-30T02:43:39.952Z,13.15
2023-04-30T02:46:08.114Z,12.52
2023-04-30T02:48:36.242Z,12.82
2023-04-30T02:51:06.001Z,12.27
2023-04-30T02:53:34.125Z,12.65
2023-04-30T02:56:02.194Z,12.90
2023-04-30T02:58:30.230Z,11.95
2023-04-30T03:00:58.498Z,9.15
2023-04-30T03:03:26.814Z,12.02
2023-04-30T03:05:56.746Z,11.73
2023-04-30T03:08:26.366Z,12.95
2023-04-30T03:10:54.483Z,12.60
2023-04-30T03:13:22.560Z,11.18
2023-04-30T03:15:50.644Z,11.82
2023-04-30T03:18:18.717Z,10.70
2023-04-30T03:20:46.747Z,11.40
2023-04-30T03:23:14.961Z,11.85
2023-04-30T03:25:44.393Z,12.95
2023-04-30T03:28:12.521Z,12.52
2023-04-30T03:30:40.612Z,12.15
2023-04-30T03:33:08.861Z,11.68
2023-04-30T03:35:37.021Z,13.07
2023-04-30T03:38:05.209Z,13.45
2023-04-30T03:40:33.249Z,13.82
2023-04-30T03:43:02.669Z,12.80
2023-04-30T03:45:31.250Z,13.57
2023-04-30T03:47:59.327Z,12.35
2023-04-30T03:50:27.714Z,13.30
2023-04-30T03:52:55.731Z,12.65
2023-04-30T03:55:23.955Z,11.68
2023-04-30T03:57:52.683Z,13.27
2023-04-30T04:00:22.790Z,13.57
2023-04-30T04:02:51.035Z,12.55
2023-04-30T04:05:19.248Z,13.07
2023-04-30T04:07:47.302Z,12.60
2023-04-30T04:10:15.419Z,13.13
2023-04-30T04:12:43.458Z,12.40
2023-04-30T04:15:11.964Z,13.50
2023-04-30T04:17:41.786Z,12.82
2023-04-30T04:20:13.340Z,13.75
2023-04-30T04:22:42.065Z,13.30
2023-04-30T04:25:10.884Z,11.68
2023-04-30T04:27:38.960Z,13.07
2023-04-30T04:30:08.217Z,13.32
2023-04-30T04:32:46.549Z,12.27
2023-04-30T04:35:16.587Z,14.15
2023-04-30T04:37:44.652Z,12.82
2023-04-30T04:40:13.754Z,12.20
2023-04-30T04:42:42.021Z,12.23
2023-04-30T04:45:11.128Z,12.93
2023-04-30T04:47:39.288Z,13.07
2023-04-30T04:50:08.553Z,12.60
2023-04-30T04:52:39.111Z,13.35
2023-04-30T04:55:07.903Z,12.63
2023-04-30T04:57:36.000Z,13.38
2023-04-30T05:00:06.566Z,12.88
2023-04-30T05:02:34.728Z,13.00
2023-04-30T05:05:03.304Z,13.63
2023-04-30T05:07:31.429Z,12.20
2023-04-30T05:10:00.822Z,12.73
2023-04-30T05:12:28.948Z,12.60
2023-04-30T05:14:57.003Z,13.23
2023-04-30T05:17:25.040Z,12.98
2023-04-30T05:19:54.242Z,13.40
2023-04-30T05:22:22.563Z,13.10
2023-04-30T05:24:53.003Z,12.20
2023-04-30T05:27:22.433Z,12.98
2023-04-30T05:29:50.473Z,13.68
2023-04-30T05:32:18.534Z,12.45
2023-04-30T05:34:46.613Z,12.65
2023-04-30T05:37:15.024Z,13.30
2023-04-30T05:39:43.058Z,12.20
2023-04-30T05:42:11.113Z,11.80
2023-04-30T05:44:41.229Z,12.13
2023-04-30T05:47:09.306Z,12.43
2023-04-30T05:49:37.393Z,13.13
2023-04-30T05:52:05.813Z,11.18
2023-04-30T05:54:33.867Z,12.63
2023-04-30T05:57:02.092Z,11.90
2023-04-30T05:59:30.177Z,11.63
2023-04-30T06:01:59.643Z,11.25
2023-04-30T06:04:27.694Z,11.95
2023-04-30T06:06:55.851Z,11.25
2023-04-30T06:09:23.894Z,10.55
2023-04-30T06:11:52.134Z,9.82
2023-04-30T06:14:22.690Z,10.52
2023-04-30T06:16:51.141Z,10.32
2023-04-30T06:19:20.906Z,10.93
2023-04-30T06:21:50.076Z,10.23
2023-04-30T06:24:18.100Z,10.73
2023-04-30T06:26:46.304Z,10.40
2023-04-30T06:29:14.344Z,11.40
2023-04-30T06:31:42.448Z,9.65
2023-04-30T06:34:10.511Z,10.20
2023-04-30T06:36:39.950Z,10.35
2023-04-30T06:39:08.058Z,10.15
2023-04-30T06:41:36.077Z,9.82
2023-04-30T06:44:04.135Z,9.25
2023-04-30T06:46:32.211Z,9.35
2023-04-30T06:49:00.270Z,8.63
2023-04-30T06:51:28.345Z,9.55
2023-04-30T06:53:57.725Z,8.68
2023-04-30T06:56:25.863Z,8.65
2023-04-30T06:58:53.901Z,8.85
2023-04-30T07:01:21.959Z,8.18
2023-04-30T07:03:51.241Z,7.68
2023-04-30T07:06:19.604Z,8.20
2023-04-30T07:08:48.502Z,7.47
2023-04-30T07:11:17.957Z,7.90
2023-04-30T07:13:46.080Z,7.75
2023-04-30T07:16:14.464Z,7.78
2023-04-30T07:18:42.535Z,7.60
2023-04-30T07:21:10.559Z,7.97
2023-04-30T07:23:38.600Z,7.43
2023-04-30T07:26:06.788Z,7.72
2023-04-30T07:28:36.516Z,8.07
2023-04-30T07:31:04.641Z,8.07
2023-04-30T07:33:33.287Z,8.55
2023-04-30T07:36:01.310Z,7.93
2023-04-30T07:38:29.489Z,8.35
2023-04-30T07:40:57.618Z,7.75
2023-04-30T07:43:25.908Z,6.70
2023-04-30T07:45:55.502Z,7.38
2023-04-30T07:48:23.665Z,6.80
2023-04-30T07:50:52.902Z,7.05
2023-04-30T07:53:21.212Z,6.60
2023-04-30T07:55:49.244Z,7.15
2023-04-30T07:58:17.290Z,6.40
2023-04-30T08:00:45.399Z,6.47
2023-04-30T08:03:14.920Z,6.78
2023-04-30T08:05:43.002Z,7.15
2023-04-30T08:08:11.090Z,6.88
2023-04-30T08:10:41.841Z,6.20
2023-04-30T08:13:09.869Z,5.75
2023-04-30T08:15:38.659Z,5.97
2023-04-30T08:18:06.861Z,6.10
2023-04-30T08:20:38.011Z,5.40
2023-04-30T08:23:06.900Z,5.32
2023-04-30T08:25:35.132Z,5.32
2023-04-30T08:28:03.175Z,5.65
2023-04-30T08:30:31.222Z,5.72
2023-04-30T08:32:59.429Z,6.00
2023-04-30T08:35:29.723Z,5.53
2023-04-30T08:37:59.165Z,5.28
2023-04-30T08:40:43.740Z,4.97
2023-04-30T08:43:16.694Z,4.35
2023-04-30T08:45:45.025Z,4.50
2023-04-30T08:48:15.196Z,4.30
2023-04-30T08:50:43.568Z,4.03
2023-04-30T08:53:15.725Z,3.88
2023-04-30T08:55:44.600Z,3.30
2023-04-30T08:58:12.660Z,4.05
2023-04-30T09:00:41.513Z,3.65
2023-04-30T09:03:10.127Z,3.25
2023-04-30T09:05:39.159Z,3.33
2023-04-30T09:08:08.711Z,2.95
2023-04-30T09:10:38.145Z,2.90
2023-04-30T09:13:08.937Z,3.25
2023-04-30T09:15:38.679Z,2.38
2023-04-30T09:18:12.275Z,2.33
2023-04-30T09:20:54.303Z,2.78
2023-04-30T09:23:22.433Z,2.08
2023-04-30T09:25:51.856Z,2.08
2023-04-30T09:28:23.728Z,2.10
2023-04-30T09:30:52.952Z,1.85
2023-04-30T09:33:21.432Z,1.80
2023-04-30T09:35:49.824Z,1.90
2023-04-30T09:38:28.362Z,1.80
2023-04-30T09:41:00.062Z,1.73
2023-04-30T09:43:28.381Z,1.80
2023-04-30T09:45:59.100Z,1.40
2023-04-30T09:48:29.465Z,1.33
2023-04-30T09:50:57.756Z,1.20
2023-04-30T09:53:25.818Z,1.15
2023-04-30T09:55:54.546Z,1.25
2023-04-30T09:58:27.090Z,1.35
2023-04-30T10:03:24.973Z,1.17
2023-04-30T10:05:54.059Z,1.10
2023-04-30T10:08:28.336Z,1.10
2023-04-30T10:11:01.372Z,1.05
2023-04-30T10:13:34.539Z,1.48
2023-04-30T10:16:09.457Z,0.93
2023-04-30T10:18:41.044Z,1.30
2023-04-30T10:21:14.189Z,1.15
2023-04-30T10:23:43.701Z,0.90
2023-04-30T10:26:13.025Z,1.00
2023-04-30T10:28:42.992Z,0.88
2023-04-30T10:31:13.177Z,0.65
2023-04-30T10:33:49.903Z,0.73
2023-04-30T10:36:27.835Z,0.70
2023-04-30T10:38:56.295Z,1.05
2023-04-30T10:41:25.576Z,1.15
2023-04-30T10:44:00.560Z,1.10
2023-04-30T10:46:30.142Z,1.10
2023-04-30T10:48:58.539Z,0.77
2023-04-30T10:51:48.629Z,1.10
2023-04-30T10:54:18.924Z,1.23
2023-04-30T10:56:48.639Z,1.13
2023-04-30T10:59:22.169Z,1.08
2023-04-30T11:01:58.397Z,1.00
2023-04-30T11:04:30.328Z,1.00
2023-04-30T11:07:16.825Z,1.17
2023-04-30T11:09:51.619Z,1.15
2023-04-30T11:12:29.359Z,1.42
2023-04-30T11:15:03.127Z,0.90
2023-04-30T11:17:36.904Z,0.85
2023-04-30T11:20:18.185Z,0.93
2023-04-30T11:22:47.996Z,0.90
2023-04-30T11:25:22.521Z,0.88
2023-04-30T11:27:53.102Z,0.82
2023-04-30T11:30:25.169Z,0.80
2023-04-30T11:32:57.559Z,0.85
2023-04-30T11:35:26.640Z,0.50
2023-04-30T11:37:56.772Z,0.70
2023-04-30T11:40:25.341Z,0.63
2023-04-30T11:42:53.411Z,0.50
2023-04-30T11:45:23.470Z,0.63
2023-04-30T11:47:53.014Z,0.85
2023-04-30T11:50:27.642Z,0.75
2023-04-30T11:52:57.379Z,0.77
2023-04-30T11:55:26.912Z,0.70
2023-04-30T11:57:56.856Z,0.73
2023-04-30T12:00:29.489Z,0.60
2023-04-30T12:02:58.530Z,0.57
2023-04-30T12:05:28.016Z,0.90
2023-04-30T12:07:57.933Z,0.63
2023-04-30T12:10:27.170Z,0.50
2023-04-30T12:12:56.087Z,0.90
2023-04-30T12:15:27.117Z,0.80
2023-04-30T12:17:58.594Z,0.85
2023-04-30T12:20:30.169Z,0.70
2023-04-30T12:22:58.954Z,0.50
2023-04-30T12:25:30.579Z,0.63
2023-04-30T12:28:00.663Z,0.70
2023-04-30T12:30:28.735Z,0.60
2023-04-30T12:33:00.863Z,0.75
2023-04-30T12:35:31.343Z,0.63
2023-04-30T12:38:07.070Z,0.70
2023-04-30T12:40:35.800Z,1.00
2023-04-30T12:43:05.283Z,0.70
2023-04-30T12:45:51.711Z,0.73
2023-04-30T12:48:23.258Z,0.40
2023-04-30T12:50:55.271Z,0.80
2023-04-30T12:53:23.980Z,0.77
2023-04-30T12:56:10.945Z,0.82
2023-04-30T12:58:39.854Z,0.70
2023-04-30T13:01:12.905Z,0.88
2023-04-30T13:03:42.683Z,1.00
2023-04-30T13:06:11.184Z,0.75
2023-04-30T13:08:50.307Z,0.70
2023-04-30T13:11:26.219Z,0.82
2023-04-30T13:13:55.856Z,0.68
2023-04-30T13:16:24.600Z,0.98
2023-04-30T13:18:54.709Z,1.08
2023-04-30T13:21:22.934Z,0.80
2023-04-30T13:23:53.561Z,0.65
2023-04-30T13:26:23.445Z,0.80
2023-04-30T13:28:51.825Z,0.60
2023-04-30T13:31:20.038Z,0.70
2023-04-30T13:33:48.175Z,0.60
2023-04-30T13:36:17.668Z,1.00
2023-04-30T13:38:45.770Z,0.65
2023-04-30T13:41:13.909Z,0.82
2023-04-30T13:43:42.631Z,0.60
2023-04-30T13:46:11.173Z,0.60
2023-04-30T13:48:39.364Z,0.80
2023-04-30T13:51:07.493Z,0.60
2023-04-30T13:53:43.285Z,0.40
2023-04-30T13:56:11.535Z,0.60
2023-04-30T13:58:39.810Z,0.65
2023-04-30T14:01:08.411Z,0.68
2023-04-30T14:03:36.637Z,1.23
2023-04-30T14:06:05.821Z,0.65
2023-04-30T14:08:34.037Z,0.70
2023-04-30T14:11:03.488Z,0.60
2023-04-30T14:13:31.542Z,0.90
2023-04-30T14:15:59.654Z,0.57
2023-04-30T14:18:27.746Z,0.70
2023-04-30T14:20:55.780Z,0.60
2023-04-30T14:23:23.874Z,0.50
2023-04-30T14:25:51.928Z,0.60
2023-04-30T14:28:21.376Z,0.60
2023-04-30T14:30:49.417Z,0.50
2023-04-30T14:33:17.529Z,0.25
2023-04-30T14:35:47.384Z,0.30
2023-04-30T14:38:15.551Z,0.40
2023-04-30T14:40:44.284Z,0.57
2023-04-30T14:43:12.334Z,0.50
2023-04-30T14:45:41.796Z,0.40
2023-04-30T14:48:09.874Z,0.47
2023-04-30T14:50:37.985Z,0.50
2023-04-30T14:53:06.706Z,0.20
2023-04-30T14:55:34.868Z,0.30
2023-04-30T14:58:02.913Z,0.30
2023-04-30T15:00:32.014Z,0.20
2023-04-30T15:03:01.699Z,0.30
2023-04-30T15:05:30.543Z,0.20
2023-04-30T15:07:58.608Z,0.30
2023-04-30T15:10:26.826Z,0.20
2023-04-30T15:12:54.916Z,0.47
2023-04-30T15:15:27.838Z,0.40
2023-04-30T15:17:56.213Z,0.40
2023-04-30T15:20:25.860Z,0.30
2023-04-30T15:22:55.005Z,0.35
2023-04-30T15:25:24.133Z,0.40
2023-04-30T15:27:53.028Z,0.50
2023-04-30T15:30:22.587Z,0.45
2023-04-30T15:32:50.867Z,0.52
2023-04-30T15:35:19.115Z,0.40
2023-04-30T15:37:48.556Z,0.45
2023-04-30T15:40:16.631Z,0.40
2023-04-30T15:42:45.112Z,0.40
2023-04-30T15:45:13.188Z,0.50
2023-04-30T15:47:41.803Z,0.40
2023-04-30T15:50:10.574Z,0.40
2023-04-30T15:52:40.191Z,1.02
2023-04-30T15:55:10.784Z,0.60
2023-04-30T15:57:38.829Z,0.60
2023-04-30T16:00:08.845Z,0.60
2023-04-30T16:02:37.126Z,0.47
2023-04-30T16:05:05.548Z,0.50
2023-04-30T16:07:33.874Z,0.38
2023-04-30T16:10:02.616Z,1.10
2023-04-30T16:12:32.147Z,0.60
2023-04-30T16:15:00.220Z,0.43
2023-04-30T16:17:28.483Z,0.50
2023-04-30T16:19:57.118Z,0.30
2023-04-30T16:22:25.472Z,0.65
2023-04-30T16:24:53.547Z,0.40
2023-04-30T16:27:21.623Z,0.60
2023-04-30T16:29:51.014Z,0.40
2023-04-30T16:32:19.271Z,0.40
2023-04-30T16:34:47.643Z,0.63
2023-04-30T16:37:15.827Z,0.80
2023-04-30T16:39:43.888Z,0.70
2023-04-30T16:42:12.287Z,0.60
2023-04-30T16:44:40.332Z,0.70
2023-04-30T16:47:10.038Z,0.47
2023-04-30T16:49:38.108Z,0.60
2023-04-30T16:52:06.519Z,0.63
2023-04-30T16:54:34.737Z,0.70
2023-04-30T16:57:04.498Z,1.65
2023-04-30T16:59:32.583Z,0.75
2023-04-30T17:02:01.990Z,0.52
2023-04-30T17:04:31.676Z,0.60
2023-04-30T17:07:00.469Z,0.40
2023-04-30T17:09:29.661Z,0.63
2023-04-30T17:11:57.745Z,3.58
2023-04-30T17:14:26.759Z,1.75
2023-04-30T17:16:54.889Z,0.70
2023-04-30T17:19:22.935Z,0.80
2023-04-30T17:21:52.851Z,0.47
2023-04-30T17:24:20.901Z,1.13
2023-04-30T17:26:49.211Z,0.60
2023-04-30T17:29:18.505Z,0.80
2023-04-30T17:31:46.794Z,0.47
2023-04-30T17:34:14.867Z,0.90
2023-04-30T17:36:44.114Z,0.80
2023-04-30T17:39:13.740Z,0.70
2023-04-30T17:41:42.861Z,0.90
2023-04-30T17:44:11.751Z,0.90
2023-04-30T17:46:40.402Z,0.80
2023-04-30T17:49:08.621Z,0.90
2023-04-30T17:51:36.886Z,0.98
2023-04-30T17:54:05.423Z,0.50
2023-04-30T17:56:34.883Z,0.60
2023-04-30T17:59:02.979Z,0.70
2023-04-30T18:01:31.471Z,0.50
2023-04-30T18:04:01.465Z,0.40
2023-04-30T18:06:29.744Z,0.40
2023-04-30T18:09:01.080Z,0.60
2023-04-30T18:11:29.190Z,0.55
2023-04-30T18:13:58.847Z,0.52
2023-04-30T18:16:27.084Z,0.52
2023-04-30T18:18:55.124Z,0.70
2023-04-30T18:21:23.255Z,0.57
2023-04-30T18:23:51.381Z,0.45
2023-04-30T18:26:21.706Z,0.80
2023-04-30T18:28:49.965Z,0.70
2023-04-30T18:31:19.561Z,0.65
2023-04-30T18:33:47.614Z,0.75
2023-04-30T18:36:15.645Z,0.60
2023-04-30T18:38:45.594Z,0.90
2023-04-30T18:41:13.669Z,0.80
2023-04-30T18:43:43.003Z,0.77
2023-04-30T18:46:11.062Z,1.27
2023-04-30T18:48:40.524Z,1.52
2023-04-30T18:51:08.586Z,1.75
2023-04-30T18:53:36.969Z,1.30
2023-04-30T18:56:05.132Z,1.92
2023-04-30T18:58:33.639Z,8.57
2023-04-30T19:01:01.738Z,10.10
2023-04-30T19:03:30.401Z,5.03
2023-04-30T19:06:00.152Z,3.50
2023-04-30T19:08:28.410Z,2.10
2023-04-30T19:10:56.916Z,1.88
2023-04-30T19:13:25.175Z,1.80
2023-04-30T19:15:54.119Z,1.27
2023-04-30T19:18:24.567Z,1.25
2023-04-30T19:21:02.073Z,1.38
2023-04-30T19:23:31.678Z,1.20
2023-04-30T19:26:00.709Z,1.02
2023-04-30T19:28:29.100Z,1.30
2023-04-30T19:30:57.627Z,2.00
2023-04-30T19:33:26.206Z,1.90
2023-04-30T19:35:55.107Z,1.65
2023-04-30T19:38:24.802Z,1.55
2023-04-30T19:40:54.296Z,1.55
2023-04-30T19:43:23.396Z,1.40
2023-04-30T19:45:53.475Z,1.30
2023-04-30T19:48:22.382Z,1.30
2023-04-30T19:50:53.265Z,1.25
2023-04-30T19:53:22.245Z,1.63
2023-04-30T19:55:53.555Z,1.73
2023-04-30T19:58:21.698Z,2.13
2023-04-30T20:00:49.956Z,2.22
2023-04-30T20:03:20.567Z,2.38
2023-04-30T20:05:48.744Z,2.50
2023-04-30T20:08:17.460Z,2.47
2023-04-30T20:10:47.013Z,2.72
2023-04-30T20:13:17.187Z,3.50
2023-04-30T20:15:45.720Z,3.00
2023-04-30T20:18:13.884Z,2.72
2023-04-30T20:20:42.089Z,2.90
2023-04-30T20:23:14.363Z,3.10
2023-04-30T20:25:45.559Z,3.08
2023-04-30T20:28:13.903Z,2.70
2023-04-30T20:30:44.202Z,3.00
2023-04-30T20:33:12.728Z,2.17
2023-04-30T20:35:41.667Z,2.42
2023-04-30T20:38:10.751Z,2.10
2023-04-30T20:40:40.383Z,2.50
2023-04-30T20:43:10.286Z,1.52
2023-04-30T20:45:38.603Z,2.45
2023-04-30T20:48:08.605Z,1.90
2023-04-30T20:50:37.297Z,2.10
2023-04-30T20:53:05.625Z,1.60
2023-04-30T20:55:33.826Z,1.85
2023-04-30T20:58:02.949Z,2.10
2023-04-30T21:00:31.023Z,1.80
2023-04-30T21:02:59.201Z,2.15
2023-04-30T21:05:30.148Z,1.60
2023-04-30T21:08:01.129Z,2.00
2023-04-30T21:10:35.737Z,2.47
2023-04-30T21:13:05.816Z,2.13
2023-04-30T21:15:36.446Z,1.42
2023-04-30T21:18:04.820Z,2.22
2023-04-30T21:20:34.395Z,1.95
2023-04-30T21:23:03.244Z,2.90
2023-04-30T21:25:31.380Z,2.38
2023-04-30T21:27:59.421Z,2.50
2023-04-30T21:30:27.514Z,2.60
2023-04-30T21:32:58.837Z,2.42
2023-04-30T21:35:27.751Z,2.50
2023-04-30T21:37:57.466Z,2.88
2023-04-30T21:40:25.671Z,3.30
2023-04-30T21:42:53.736Z,2.72
2023-04-30T21:45:21.988Z,3.00
2023-04-30T21:47:50.417Z,2.72
2023-04-30T21:50:18.739Z,2.80
2023-04-30T21:52:46.885Z,2.80
2023-04-30T21:55:16.280Z,2.78
2023-04-30T21:57:46.480Z,2.90
2023-04-30T22:00:16.789Z,2.28
2023-04-30T22:02:45.009Z,2.20
2023-04-30T22:05:13.338Z,2.55
2023-04-30T22:07:41.459Z,2.33
2023-04-30T22:10:10.410Z,2.13
2023-04-30T22:12:39.930Z,2.25
2023-04-30T22:15:09.067Z,2.10
2023-04-30T22:17:37.130Z,2.00
2023-04-30T22:20:06.651Z,1.88
2023-04-30T22:22:34.712Z,1.95
2023-04-30T22:25:02.921Z,1.88
2023-04-30T22:27:31.358Z,1.65
2023-04-30T22:30:00.795Z,2.10
2023-04-30T22:32:28.928Z,2.10
2023-04-30T22:34:57.526Z,1.95
2023-04-30T22:37:26.340Z,2.42
2023-04-30T22:39:54.681Z,2.70
2023-04-30T22:42:23.510Z,2.65
2023-04-30T22:44:51.937Z,2.78
2023-04-30T22:47:21.485Z,2.50
2023-04-30T22:49:49.804Z,2.50
2023-04-30T22:52:18.180Z,2.20
2023-04-30T22:54:47.173Z,2.25
2023-04-30T22:57:15.254Z,2.20
2023-04-30T22:59:43.320Z,2.40
2023-04-30T23:02:11.364Z,2.40
2023-04-30T23:04:40.778Z,2.20
2023-04-30T23:07:09.057Z,3.13
2023-04-30T23:09:37.096Z,2.22
2023-04-30T23:12:05.593Z,2.15
2023-04-30T23:14:33.892Z,2.30
2023-04-30T23:17:02.106Z,2.40
2023-04-30T23:19:30.273Z,2.90
2023-04-30T23:21:59.700Z,2.03
2023-04-30T23:24:27.751Z,2.10
2023-04-30T23:26:57.771Z,2.08
2023-04-30T23:29:25.810Z,2.58
2023-04-30T23:31:55.185Z,2.33
2023-04-30T23:34:23.469Z,5.72
2023-04-30T23:36:51.555Z,19.13
2023-04-30T23:39:21.030Z,6.68
2023-04-30T23:41:49.079Z,4.03
2023-04-30T23:44:17.115Z,2.97
2023-04-30T23:46:45.316Z,2.90
2023-04-30T23:49:13.435Z,2.15
2023-04-30T23:51:41.490Z,2.20
2023-04-30T23:54:09.534Z,2.50
2023-04-30T23:56:38.971Z,2.40
2023-04-30T23:59:07.274Z,1.85
